createdAt,value
2019-06-07T00:01:57.328Z,99657.00
2019-06-07T00:04:27.059Z,99663.00
2019-06-07T00:06:56.793Z,99668.00
2019-06-07T00:09:26.501Z,99665.00
2019-06-07T00:11:56.181Z,99673.00
2019-06-07T00:14:27.299Z,99667.00
2019-06-07T00:16:57.067Z,99668.00
2019-06-07T00:19:26.717Z,99661.00
2019-06-07T00:22:16.569Z,99656.00
2019-06-07T00:24:51.696Z,99666.00
2019-06-07T00:27:22.534Z,99664.00
2019-06-07T00:29:54.394Z,99659.00
2019-06-07T00:32:24.078Z,99652.00
2019-06-07T00:34:53.779Z,99649.00
2019-06-07T00:37:25.587Z,99647.00
2019-06-07T00:40:13.516Z,99645.00
2019-06-07T00:42:28.235Z,99636.00
2019-06-07T00:44:57.989Z,99637.00
2019-06-07T00:47:29.231Z,99635.00
2019-06-07T00:50:00.181Z,99637.00
2019-06-07T00:55:01.422Z,99619.00
2019-06-07T00:57:32.790Z,99613.00
2019-06-07T01:00:02.997Z,99609.00
2019-06-07T01:02:32.768Z,99605.00
2019-06-07T01:05:04.092Z,99607.00
2019-06-07T01:07:34.023Z,99608.00
2019-06-07T01:10:05.618Z,99612.00
2019-06-07T01:12:35.413Z,99613.00
2019-06-07T01:15:08.603Z,99609.00
2019-06-07T01:17:49.936Z,99599.00
2019-06-07T01:20:12.214Z,99598.00
2019-06-07T01:22:41.959Z,99609.00
2019-06-07T01:25:15.739Z,99591.00
2019-06-07T01:27:45.836Z,99601.00
2019-06-07T01:30:18.850Z,99599.00
2019-06-07T01:32:49.567Z,99584.00
2019-06-07T01:35:20.637Z,99587.00
2019-06-07T01:37:50.785Z,99588.00
2019-06-07T01:40:26.769Z,99578.00
2019-06-07T01:42:52.669Z,99580.00
2019-06-07T01:45:23.888Z,99571.00
2019-06-07T01:47:56.012Z,99584.00
2019-06-07T01:50:27.345Z,99577.00
2019-06-07T01:52:57.030Z,99582.00
2019-06-07T01:55:31.499Z,99579.00
2019-06-07T01:57:58.182Z,99578.00
2019-06-07T02:00:32.290Z,99569.00
2019-06-07T02:03:00.863Z,99566.00
2019-06-07T02:05:32.361Z,99566.00
2019-06-07T02:08:02.944Z,99571.00
2019-06-07T02:10:33.620Z,99578.00
2019-06-07T02:13:03.632Z,99576.00
2019-06-07T02:15:36.736Z,99576.00
2019-06-07T02:18:05.357Z,99575.00
2019-06-07T02:20:36.167Z,99570.00
2019-06-07T02:23:06.183Z,99569.00
2019-06-07T02:25:46.607Z,99569.00
2019-06-07T02:28:27.328Z,99569.00
2019-06-07T02:30:58.603Z,99561.00
2019-06-07T02:33:16.199Z,99562.00
2019-06-07T02:35:45.878Z,99547.00
2019-06-07T02:38:17.326Z,99544.00
2019-06-07T02:40:46.995Z,99536.00
2019-06-07T02:43:16.671Z,99530.00
2019-06-07T02:45:46.975Z,99530.00
2019-06-07T02:48:16.723Z,99527.00
2019-06-07T02:50:46.835Z,99523.00
2019-06-07T02:53:16.561Z,99520.00
2019-06-07T02:56:34.316Z,99511.00
2019-06-07T02:58:20.179Z,99511.00
2019-06-07T03:01:07.055Z,99511.00
2019-06-07T03:03:22.826Z,99512.00
2019-06-07T03:05:52.502Z,99498.00
2019-06-07T03:08:22.201Z,99492.00
2019-06-07T03:10:52.084Z,99492.00
2019-06-07T03:13:23.659Z,99483.00
2019-06-07T03:15:55.802Z,99478.00
2019-06-07T03:18:43.231Z,99470.00
2019-06-07T03:21:15.462Z,99467.00
2019-06-07T03:23:47.166Z,99464.00
2019-06-07T03:26:18.455Z,99468.00
2019-06-07T03:28:49.138Z,99454.00
2019-06-07T03:31:18.835Z,99452.00
2019-06-07T03:33:48.544Z,99449.00
2019-06-07T03:36:23.895Z,99450.00
2019-06-07T03:38:49.897Z,99444.00
2019-06-07T03:41:19.678Z,99431.00
2019-06-07T03:43:49.416Z,99434.00
2019-06-07T03:46:19.115Z,99432.00
2019-06-07T03:48:48.811Z,99418.00
2019-06-07T03:51:25.306Z,99430.00
2019-06-07T03:53:49.983Z,99432.00
2019-06-07T03:56:19.668Z,99427.00
2019-06-07T03:58:50.537Z,99416.00
2019-06-07T04:01:20.517Z,99421.00
2019-06-07T04:03:51.724Z,99414.00
2019-06-07T04:06:21.809Z,99411.00
2019-06-07T04:08:51.475Z,99419.00
2019-06-07T04:11:21.157Z,99422.00
2019-06-07T04:13:50.854Z,99426.00
2019-06-07T04:16:20.507Z,99426.00
2019-06-07T04:18:50.266Z,99413.00
2019-06-07T04:21:19.974Z,99406.00
2019-06-07T04:23:49.666Z,99412.00
2019-06-07T04:26:19.359Z,99405.00
2019-06-07T04:29:31.502Z,99402.00
2019-06-07T04:31:20.508Z,99387.00
2019-06-07T04:33:50.622Z,99388.00
2019-06-07T04:36:39.377Z,99386.00
2019-06-07T04:38:55.375Z,99386.00
2019-06-07T04:41:28.725Z,99386.00
2019-06-07T04:44:02.631Z,99383.00
2019-06-07T04:46:35.228Z,99377.00
2019-06-07T04:49:05.503Z,99396.00
2019-06-07T04:51:40.768Z,99391.00
2019-06-07T04:54:09.786Z,99389.00
2019-06-07T04:56:44.264Z,99393.00
2019-06-07T05:00:00.170Z,99379.00
2019-06-07T05:01:45.248Z,99363.00
2019-06-07T05:04:14.960Z,99361.00
2019-06-07T05:06:44.712Z,99367.00
2019-06-07T05:09:14.392Z,99365.00
2019-06-07T05:11:45.028Z,99361.00
2019-06-07T05:14:15.236Z,99353.00
2019-06-07T05:16:45.006Z,99350.00
2019-06-07T05:19:14.782Z,99350.00
2019-06-07T05:22:02.847Z,99347.00
2019-06-07T05:24:15.866Z,99344.00
2019-06-07T05:26:45.583Z,99343.00
2019-06-07T05:29:16.600Z,99333.00
2019-06-07T05:31:46.983Z,99326.00
2019-06-07T05:34:16.696Z,99330.00
2019-06-07T05:37:08.438Z,99328.00
2019-06-07T05:39:17.790Z,99326.00
2019-06-07T05:41:48.632Z,99336.00
2019-06-07T05:44:18.311Z,99323.00
2019-06-07T05:46:47.974Z,99326.00
2019-06-07T05:49:17.713Z,99319.00
2019-06-07T05:51:47.783Z,99310.00
2019-06-07T05:54:17.523Z,99307.00
2019-06-07T05:56:47.742Z,99309.00
2019-06-07T05:59:17.555Z,99289.00
2019-06-07T06:01:58.971Z,99294.00
2019-06-07T06:04:18.725Z,99285.00
2019-06-07T06:06:48.413Z,99288.00
2019-06-07T06:09:18.083Z,99278.00
2019-06-07T06:11:59.714Z,99271.00
2019-06-07T06:14:19.184Z,99264.00
2019-06-07T06:16:50.055Z,99267.00
2019-06-07T06:19:19.928Z,99273.00
2019-06-07T06:21:54.432Z,99266.00
2019-06-07T06:24:24.107Z,99264.00
2019-06-07T06:27:12.389Z,99267.00
2019-06-07T06:29:26.710Z,99260.00
2019-06-07T06:32:40.525Z,99260.00
2019-06-07T06:34:27.833Z,99253.00
2019-06-07T06:36:57.507Z,99247.00
2019-06-07T06:39:27.177Z,99251.00
2019-06-07T06:42:03.331Z,99254.00
2019-06-07T06:44:28.268Z,99250.00
2019-06-07T06:46:58.666Z,99249.00
2019-06-07T06:49:28.454Z,99241.00
2019-06-07T06:51:58.124Z,99242.00
2019-06-07T06:54:40.111Z,99249.00
2019-06-07T06:57:18.102Z,99246.00
2019-06-07T06:59:39.251Z,99234.00
2019-06-07T07:02:04.225Z,99234.00
2019-06-07T07:04:34.231Z,99241.00
2019-06-07T07:07:04.221Z,99229.00
2019-06-07T07:09:34.798Z,99220.00
2019-06-07T07:12:11.690Z,99226.00
2019-06-07T07:14:46.991Z,99217.00
2019-06-07T07:17:14.875Z,99216.00
2019-06-07T07:19:47.962Z,99201.00
2019-06-07T07:22:16.052Z,99203.00
2019-06-07T07:24:47.047Z,99203.00
2019-06-07T07:27:17.297Z,99201.00
2019-06-07T07:29:52.560Z,99195.00
2019-06-07T07:32:18.758Z,99196.00
2019-06-07T07:34:52.670Z,99197.00
2019-06-07T07:37:27.080Z,99189.00
2019-06-07T07:40:21.123Z,99188.00
2019-06-07T07:42:33.904Z,99182.00
2019-06-07T07:45:09.057Z,99181.00
2019-06-07T07:47:58.249Z,99177.00
2019-06-07T07:50:11.192Z,99170.00
2019-06-07T07:52:45.826Z,99168.00
2019-06-07T07:55:16.884Z,99164.00
2019-06-07T07:57:58.072Z,99159.00
2019-06-07T08:00:50.384Z,99151.00
2019-06-07T08:02:59.616Z,99154.00
2019-06-07T08:05:41.888Z,99150.00
2019-06-07T08:08:04.755Z,99152.00
2019-06-07T08:10:31.705Z,99139.00
2019-06-07T08:13:22.162Z,99138.00
2019-06-07T08:15:34.618Z,99134.00
2019-06-07T08:18:04.894Z,99132.00
2019-06-07T08:20:34.866Z,99127.00
2019-06-07T08:23:04.834Z,99130.00
2019-06-07T08:25:34.526Z,99118.00
2019-06-07T08:28:04.564Z,99117.00
2019-06-07T08:30:50.279Z,99107.00
2019-06-07T08:33:25.211Z,99107.00
2019-06-07T08:38:25.808Z,99108.00
2019-06-07T08:40:42.856Z,99106.00
2019-06-07T08:43:20.331Z,99100.00
2019-06-07T08:45:44.444Z,99101.00
2019-06-07T08:48:27.605Z,99106.00
2019-06-07T08:50:45.515Z,99104.00
2019-06-07T08:53:15.276Z,99105.00
2019-06-07T08:55:44.955Z,99106.00
2019-06-07T08:58:14.634Z,99110.00
2019-06-07T09:00:47.047Z,99110.00
2019-06-07T09:03:15.904Z,99109.00
2019-06-07T09:05:45.547Z,99105.00
2019-06-07T09:08:29.243Z,99099.00
2019-06-07T09:10:46.677Z,99096.00
2019-06-07T09:13:17.220Z,99091.00
2019-06-07T09:15:46.945Z,99083.00
2019-06-07T09:18:41.342Z,99089.00
2019-06-07T09:20:49.831Z,99078.00
2019-06-07T09:23:21.921Z,99075.00
2019-06-07T09:26:00.845Z,99074.00
2019-06-07T09:28:26.130Z,99070.00
2019-06-07T09:30:59.258Z,99075.00
2019-06-07T09:33:27.462Z,99061.00
2019-06-07T09:35:58.636Z,99059.00
2019-06-07T09:38:28.511Z,99062.00
2019-06-07T09:41:00.500Z,99055.00
2019-06-07T09:44:00.778Z,99057.00
2019-06-07T09:46:09.704Z,99050.00
2019-06-07T09:49:09.712Z,99052.00
2019-06-07T09:51:13.266Z,99040.00
2019-06-07T09:53:37.092Z,99033.00
2019-06-07T09:56:11.189Z,99034.00
2019-06-07T09:58:54.461Z,99033.00
2019-06-07T10:01:13.768Z,99031.00
2019-06-07T10:03:42.001Z,99024.00
2019-06-07T10:06:13.675Z,99018.00
2019-06-07T10:11:16.258Z,99025.00
2019-06-07T10:13:46.013Z,99016.00
2019-06-07T10:16:15.712Z,99013.00
2019-06-07T10:18:45.400Z,99003.00
2019-06-07T10:21:15.709Z,98980.00
2019-06-07T10:23:45.554Z,98962.00
2019-06-07T10:26:15.262Z,98913.00
2019-06-07T10:28:44.928Z,98911.00
2019-06-07T10:31:14.667Z,98934.00
2019-06-07T10:33:44.680Z,98917.00
2019-06-07T10:36:14.431Z,98917.00
2019-06-07T10:38:44.111Z,98923.00
2019-06-07T10:41:13.918Z,98924.00
2019-06-07T10:43:43.575Z,98909.00
2019-06-07T10:46:13.363Z,98905.00
2019-06-07T10:48:43.053Z,98912.00
2019-06-07T10:51:14.707Z,98923.00
2019-06-07T10:53:44.621Z,98921.00
2019-06-07T10:56:14.328Z,98909.00
2019-06-07T10:58:44.231Z,98911.00
2019-06-07T11:01:14.518Z,98901.00
2019-06-07T11:03:44.728Z,98883.00
2019-06-07T11:06:14.458Z,98872.00
2019-06-07T11:08:45.692Z,98865.00
2019-06-07T11:11:15.464Z,98865.00
2019-06-07T11:13:45.151Z,98865.00
2019-06-07T11:16:16.454Z,98859.00
2019-06-07T11:18:46.360Z,98866.00
2019-06-07T11:21:16.137Z,98853.00
2019-06-07T11:23:46.830Z,98849.00
2019-06-07T11:26:16.645Z,98835.00
2019-06-07T11:28:47.862Z,98826.00
2019-06-07T11:31:19.294Z,98826.00
2019-06-07T11:33:50.351Z,98811.00
2019-06-07T11:36:20.115Z,98808.00
2019-06-07T11:38:49.926Z,98797.00
2019-06-07T11:41:19.625Z,98786.00
2019-06-07T11:43:49.288Z,98784.00
2019-06-07T11:46:18.960Z,98788.00
2019-06-07T11:48:48.659Z,98778.00
2019-06-07T11:51:18.938Z,98772.00
2019-06-07T11:53:51.638Z,98760.00
2019-06-07T11:56:22.713Z,98761.00
2019-06-07T11:58:52.467Z,98758.00
2019-06-07T12:01:22.339Z,98707.00
2019-06-07T12:03:54.434Z,98756.00
2019-06-07T12:06:24.099Z,98739.00
2019-06-07T12:08:53.765Z,98736.00
2019-06-07T12:11:23.475Z,98729.00
2019-06-07T12:13:54.400Z,98726.00
2019-06-07T12:16:24.085Z,98719.00
2019-06-07T12:18:53.823Z,98721.00
2019-06-07T12:21:23.495Z,98715.00
2019-06-07T12:23:53.175Z,98721.00
2019-06-07T12:26:22.850Z,98702.00
2019-06-07T12:28:54.572Z,98686.00
2019-06-07T12:31:26.165Z,98697.00
2019-06-07T12:33:55.857Z,98678.00
2019-06-07T12:36:25.744Z,98682.00
2019-06-07T12:38:55.438Z,98665.00
2019-06-07T12:41:25.436Z,98661.00
2019-06-07T12:43:55.090Z,98668.00
2019-06-07T12:46:28.534Z,98664.00
2019-06-07T12:48:56.263Z,98668.00
2019-06-07T12:51:25.933Z,98671.00
2019-06-07T12:53:55.612Z,98675.00
2019-06-07T12:56:25.308Z,98671.00
2019-06-07T12:58:54.991Z,98673.00
2019-06-07T13:01:26.091Z,98664.00
2019-06-07T13:03:55.787Z,98673.00
2019-06-07T13:06:27.996Z,98663.00
2019-06-07T13:08:57.858Z,98681.00
2019-06-07T13:11:31.275Z,98688.00
2019-06-07T13:13:58.919Z,98690.00
2019-06-07T13:16:30.661Z,98705.00
2019-06-07T13:19:00.384Z,98712.00
2019-06-07T13:21:31.689Z,98720.00
2019-06-07T13:24:02.944Z,98727.00
2019-06-07T13:26:32.644Z,98725.00
2019-06-07T13:29:02.307Z,98732.00
2019-06-07T13:31:34.133Z,98724.00
2019-06-07T13:34:04.408Z,98727.00
2019-06-07T13:36:34.160Z,98726.00
2019-06-07T13:39:06.970Z,98727.00
2019-06-07T13:41:42.814Z,98722.00
2019-06-07T13:44:08.135Z,98722.00
2019-06-07T13:46:38.781Z,98710.00
2019-06-07T13:49:08.481Z,98724.00
2019-06-07T13:51:38.486Z,98722.00
2019-06-07T13:54:09.570Z,98714.00
2019-06-07T13:57:00.792Z,98702.00
2019-06-07T13:59:12.506Z,98711.00
2019-06-07T14:01:42.290Z,98700.00
2019-06-07T14:04:12.776Z,98702.00
2019-06-07T14:06:43.917Z,98693.00
2019-06-07T14:09:13.685Z,98703.00
2019-06-07T14:11:50.551Z,98704.00
2019-06-07T14:14:16.540Z,98699.00
2019-06-07T14:16:46.302Z,98696.00
2019-06-07T14:19:17.651Z,98692.00
2019-06-07T14:21:47.391Z,98703.00
2019-06-07T14:24:17.073Z,98689.00
2019-06-07T14:26:48.377Z,98680.00
2019-06-07T14:29:18.268Z,98684.00
2019-06-07T14:31:48.087Z,98676.00
2019-06-07T14:34:19.405Z,98668.00
2019-06-07T14:36:51.900Z,98675.00
2019-06-07T14:39:22.960Z,98673.00
2019-06-07T14:42:08.057Z,98672.00
2019-06-07T14:44:26.108Z,98659.00
2019-06-07T14:46:55.886Z,98665.00
2019-06-07T14:49:26.396Z,98668.00
2019-06-07T14:51:56.196Z,98665.00
2019-06-07T14:54:27.439Z,98658.00
2019-06-07T14:56:57.410Z,98653.00
2019-06-07T14:59:28.413Z,98655.00
2019-06-07T15:01:58.243Z,98654.00
2019-06-07T15:04:28.979Z,98657.00
2019-06-07T15:06:58.643Z,98648.00
2019-06-07T15:09:29.024Z,98647.00
2019-06-07T15:11:58.918Z,98649.00
2019-06-07T15:14:29.287Z,98641.00
2019-06-07T15:16:59.373Z,98643.00
2019-06-07T15:19:29.189Z,98644.00
2019-06-07T15:21:59.059Z,98643.00
2019-06-07T15:24:32.563Z,98648.00
2019-06-07T15:27:00.141Z,98643.00
2019-06-07T15:29:29.870Z,98644.00
2019-06-07T15:32:01.934Z,98639.00
2019-06-07T15:34:32.380Z,98642.00
2019-06-07T15:37:02.188Z,98632.00
2019-06-07T15:39:32.813Z,98649.00
2019-06-07T15:42:02.495Z,98642.00
2019-06-07T15:44:33.325Z,98648.00
2019-06-07T15:47:03.323Z,98645.00
2019-06-07T15:49:34.159Z,98642.00
2019-06-07T15:52:04.238Z,98639.00
2019-06-07T15:54:35.084Z,98636.00
2019-06-07T15:57:04.838Z,98635.00
2019-06-07T15:59:35.812Z,98622.00
2019-06-07T16:02:07.600Z,98614.00
2019-06-07T16:04:37.689Z,98611.00
2019-06-07T16:07:07.537Z,98611.00
2019-06-07T16:09:38.492Z,98611.00
2019-06-07T16:12:08.247Z,98600.00
2019-06-07T16:14:39.096Z,98603.00
2019-06-07T16:17:09.304Z,98601.00
2019-06-07T16:19:42.862Z,98587.00
2019-06-07T16:22:10.526Z,98588.00
2019-06-07T16:24:40.222Z,98573.00
2019-06-07T16:27:09.908Z,98565.00
2019-06-07T16:29:40.628Z,98558.00
2019-06-07T16:32:10.458Z,98557.00
2019-06-07T16:34:41.841Z,98550.00
2019-06-07T16:37:11.660Z,98554.00
2019-06-07T16:39:42.845Z,98544.00
2019-06-07T16:42:12.526Z,98545.00
2019-06-07T16:44:42.600Z,98552.00
2019-06-07T16:47:12.339Z,98561.00
2019-06-07T16:49:42.953Z,98557.00
2019-06-07T16:52:12.776Z,98562.00
2019-06-07T16:54:43.598Z,98566.00
2019-06-07T16:57:13.294Z,98556.00
2019-06-07T16:59:47.681Z,98566.00
2019-06-07T17:02:14.609Z,98562.00
2019-06-07T17:04:45.567Z,98562.00
2019-06-07T17:07:15.290Z,98561.00
2019-06-07T17:09:47.234Z,98563.00
2019-06-07T17:12:16.611Z,98568.00
2019-06-07T17:14:48.704Z,98562.00
2019-06-07T17:17:20.709Z,98561.00
2019-06-07T17:19:56.834Z,98568.00
2019-06-07T17:22:30.893Z,98562.00
2019-06-07T17:25:00.637Z,98569.00
2019-06-07T17:27:31.725Z,98567.00
2019-06-07T17:30:01.504Z,98576.00
2019-06-07T17:32:47.750Z,98576.00
2019-06-07T17:35:07.013Z,98576.00
2019-06-07T17:37:38.224Z,98558.00
2019-06-07T17:40:09.391Z,98561.00
2019-06-07T17:42:39.057Z,98577.00
2019-06-07T17:45:12.098Z,98562.00
2019-06-07T17:47:45.819Z,98569.00
2019-06-07T17:50:16.431Z,98550.00
2019-06-07T17:52:46.243Z,98563.00
2019-06-07T17:55:18.741Z,98562.00
2019-06-07T17:57:48.927Z,98554.00
2019-06-07T18:00:29.022Z,98557.00
2019-06-07T18:02:53.032Z,98547.00
2019-06-07T18:05:23.350Z,98545.00
2019-06-07T18:07:54.865Z,98545.00
2019-06-07T18:10:39.682Z,98518.00
2019-06-07T18:13:09.365Z,98556.00
2019-06-07T18:15:53.268Z,98550.00
2019-06-07T18:18:19.651Z,98546.00
2019-06-07T18:20:51.633Z,98534.00
2019-06-07T18:23:21.937Z,98544.00
2019-06-07T18:25:52.561Z,98539.00
2019-06-07T18:28:22.358Z,98527.00
2019-06-07T18:30:52.815Z,98540.00
2019-06-07T18:33:22.755Z,98535.00
2019-06-07T18:35:53.317Z,98537.00
2019-06-07T18:38:23.242Z,98543.00
2019-06-07T18:40:53.308Z,98531.00
2019-06-07T18:43:23.230Z,98531.00
2019-06-07T18:45:53.559Z,98529.00
2019-06-07T18:48:23.502Z,98536.00
2019-06-07T18:50:54.698Z,98535.00
2019-06-07T18:53:24.473Z,98529.00
2019-06-07T18:55:54.180Z,98523.00
2019-06-07T18:58:23.942Z,98525.00
2019-06-07T19:00:53.871Z,98523.00
2019-06-07T19:03:23.613Z,98527.00
2019-06-07T19:05:54.274Z,98531.00
2019-06-07T19:08:24.085Z,98524.00
2019-06-07T19:10:54.806Z,98517.00
2019-06-07T19:13:24.632Z,98521.00
2019-06-07T19:15:55.452Z,98535.00
2019-06-07T19:18:25.359Z,98528.00
2019-06-07T19:20:56.493Z,98543.00
2019-06-07T19:23:27.806Z,98545.00
2019-06-07T19:25:58.864Z,98553.00
2019-06-07T19:28:30.021Z,98556.00
2019-06-07T19:31:03.586Z,98552.00
2019-06-07T19:33:48.360Z,98552.00
2019-06-07T19:36:07.974Z,98552.00
2019-06-07T19:38:37.953Z,98555.00
2019-06-07T19:41:19.147Z,98554.00
2019-06-07T19:43:39.070Z,98557.00
2019-06-07T19:46:08.791Z,98564.00
2019-06-07T19:48:38.555Z,98562.00
2019-06-07T19:51:09.689Z,98565.00
2019-06-07T19:53:39.378Z,98560.00
2019-06-07T19:56:09.297Z,98567.00
2019-06-07T19:58:38.947Z,98570.00
2019-06-07T20:01:08.648Z,98580.00
2019-06-07T20:03:38.329Z,98578.00
2019-06-07T20:06:07.999Z,98583.00
2019-06-07T20:08:37.914Z,98581.00
2019-06-07T20:11:07.576Z,98585.00
2019-06-07T20:13:37.262Z,98582.00
2019-06-07T20:16:07.972Z,98590.00
2019-06-07T20:18:37.795Z,98596.00
2019-06-07T20:21:09.275Z,98600.00
2019-06-07T20:23:39.202Z,98600.00
2019-06-07T20:26:08.954Z,98598.00
2019-06-07T20:28:38.796Z,98609.00
2019-06-07T20:31:09.889Z,98597.00
2019-06-07T20:33:41.111Z,98591.00
2019-06-07T20:36:10.795Z,98592.00
2019-06-07T20:38:40.584Z,98590.00
2019-06-07T20:41:10.258Z,98595.00
2019-06-07T20:43:39.947Z,98608.00
2019-06-07T20:46:09.722Z,98609.00
2019-06-07T20:48:39.508Z,98617.00
2019-06-07T20:51:09.320Z,98607.00
2019-06-07T20:53:39.221Z,98608.00
2019-06-07T20:56:09.374Z,98611.00
2019-06-07T20:58:39.085Z,98610.00
2019-06-07T21:01:09.115Z,98605.00
2019-06-07T21:03:38.728Z,98611.00
2019-06-07T21:06:09.867Z,98612.00
2019-06-07T21:08:39.945Z,98614.00
2019-06-07T21:11:09.874Z,98624.00
2019-06-07T21:13:41.308Z,98612.00
2019-06-07T21:16:11.129Z,98605.00
2019-06-07T21:18:40.813Z,98613.00
2019-06-07T21:21:10.676Z,98608.00
2019-06-07T21:23:40.380Z,98605.00
2019-06-07T21:26:11.053Z,98608.00
2019-06-07T21:28:40.916Z,98621.00
2019-06-07T21:31:10.643Z,98629.00
2019-06-07T21:33:40.361Z,98630.00
2019-06-07T21:36:10.060Z,98616.00
2019-06-07T21:38:40.512Z,98618.00
2019-06-07T21:41:10.617Z,98622.00
2019-06-07T21:43:42.025Z,98622.00
2019-06-07T21:46:19.626Z,98621.00
2019-06-07T21:48:43.132Z,98630.00
2019-06-07T21:51:12.819Z,98623.00
2019-06-07T21:53:42.602Z,98627.00
2019-06-07T21:56:13.383Z,98631.00
2019-06-07T21:58:44.934Z,98630.00
2019-06-07T22:01:19.082Z,98625.00
2019-06-07T22:03:48.768Z,98628.00
2019-06-07T22:06:20.439Z,98627.00
2019-06-07T22:08:51.523Z,98628.00
2019-06-07T22:11:21.176Z,98624.00
2019-06-07T22:13:50.860Z,98624.00
2019-06-07T22:16:28.548Z,98624.00
2019-06-07T22:18:51.946Z,98634.00
2019-06-07T22:21:21.646Z,98615.00
2019-06-07T22:23:51.416Z,98620.00
2019-06-07T22:26:23.034Z,98622.00
2019-06-07T22:28:52.714Z,98617.00
2019-06-07T22:31:22.880Z,98619.00
2019-06-07T22:33:52.584Z,98616.00
2019-06-07T22:36:22.271Z,98614.00
2019-06-07T22:38:52.145Z,98613.00
2019-06-07T22:41:21.808Z,98610.00
2019-06-07T22:43:51.667Z,98615.00
2019-06-07T22:46:36.374Z,98611.00
2019-06-07T22:48:52.961Z,98612.00
2019-06-07T22:51:22.783Z,98606.00
2019-06-07T22:53:52.484Z,98607.00
2019-06-07T22:56:23.806Z,98606.00
2019-06-07T22:58:53.455Z,98598.00
2019-06-07T23:01:23.448Z,98602.00
2019-06-07T23:03:53.113Z,98608.00
2019-06-07T23:06:22.819Z,98607.00
2019-06-07T23:08:52.465Z,98610.00
2019-06-07T23:11:22.170Z,98607.00
2019-06-07T23:13:51.853Z,98615.00
2019-06-07T23:16:21.627Z,98615.00
2019-06-07T23:18:51.363Z,98617.00
2019-06-07T23:21:21.042Z,98612.00
2019-06-07T23:23:50.905Z,98614.00
2019-06-07T23:26:20.724Z,98620.00
2019-06-07T23:28:50.644Z,98615.00
2019-06-07T23:31:21.810Z,98616.00
2019-06-07T23:33:51.521Z,98610.00
2019-06-07T23:36:21.467Z,98615.00
2019-06-07T23:38:51.455Z,98613.00
2019-06-07T23:41:22.326Z,98611.00
2019-06-07T23:43:52.169Z,98619.00
2019-06-07T23:46:23.630Z,98621.00
2019-06-07T23:48:53.367Z,98617.00
2019-06-07T23:51:23.096Z,98624.00
2019-06-07T23:53:53.409Z,98621.00
2019-06-07T23:56:23.197Z,98633.00
2019-06-07T23:58:52.879Z,98627.00
